sensor_id;sensor_type;location;lat;lon;timestamp;temperature;humidity
13049;DHT22;6591;51.446;5.404;2023-05-29T00:00:05;14.90;97.40
13049;DHT22;6591;51.446;5.404;2023-05-29T00:02:35;14.90;97.50
13049;DHT22;6591;51.446;5.404;2023-05-29T00:05:03;15.10;98.10
13049;DHT22;6591;51.446;5.404;2023-05-29T00:07:30;14.80;97.80
13049;DHT22;6591;51.446;5.404;2023-05-29T00:09:59;14.80;98.20
13049;DHT22;6591;51.446;5.404;2023-05-29T00:12:26;14.70;98.60
13049;DHT22;6591;51.446;5.404;2023-05-29T00:14:53;14.70;98.30
13049;DHT22;6591;51.446;5.404;2023-05-29T00:17:20;14.80;98.70
13049;DHT22;6591;51.446;5.404;2023-05-29T00:19:47;15.20;99.30
13049;DHT22;6591;51.446;5.404;2023-05-29T00:22:14;14.50;99.10
13049;DHT22;6591;51.446;5.404;2023-05-29T00:24:43;14.50;99.60
13049;DHT22;6591;51.446;5.404;2023-05-29T00:27:12;14.40;99.60
13049;DHT22;6591;51.446;5.404;2023-05-29T00:29:39;14.90;99.50
13049;DHT22;6591;51.446;5.404;2023-05-29T00:32:06;14.40;99.50
13049;DHT22;6591;51.446;5.404;2023-05-29T00:34:34;15.40;99.90
13049;DHT22;6591;51.446;5.404;2023-05-29T00:37:02;14.40;99.80
13049;DHT22;6591;51.446;5.404;2023-05-29T00:39:30;14.20;99.80
13049;DHT22;6591;51.446;5.404;2023-05-29T00:41:57;14.20;99.90
13049;DHT22;6591;51.446;5.404;2023-05-29T00:44:28;14.10;99.90
13049;DHT22;6591;51.446;5.404;2023-05-29T00:46:54;14.10;99.70
13049;DHT22;6591;51.446;5.404;2023-05-29T00:49:23;15.50;99.90
13049;DHT22;6591;51.446;5.404;2023-05-29T00:51:52;15.90;99.90
13049;DHT22;6591;51.446;5.404;2023-05-29T00:54:26;14.90;99.90
13049;DHT22;6591;51.446;5.404;2023-05-29T00:56:58;13.90;99.90
13049;DHT22;6591;51.446;5.404;2023-05-29T00:59:27;13.90;99.70
13049;DHT22;6591;51.446;5.404;2023-05-29T01:02:00;13.80;99.70
13049;DHT22;6591;51.446;5.404;2023-05-29T01:04:31;15.60;99.90
13049;DHT22;6591;51.446;5.404;2023-05-29T01:07:02;14.90;99.90
13049;DHT22;6591;51.446;5.404;2023-05-29T01:09:32;13.60;99.90
13049;DHT22;6591;51.446;5.404;2023-05-29T01:12:23;13.60;99.90
13049;DHT22;6591;51.446;5.404;2023-05-29T01:15:29;13.50;99.90
13049;DHT22;6591;51.446;5.404;2023-05-29T01:27:21;13.40;99.70
13049;DHT22;6591;51.446;5.404;2023-05-29T01:29:55;13.30;99.10
13049;DHT22;6591;51.446;5.404;2023-05-29T01:32:24;13.20;99.10
13049;DHT22;6591;51.446;5.404;2023-05-29T01:34:52;14.50;99.60
13049;DHT22;6591;51.446;5.404;2023-05-29T01:37:19;13.20;99.20
13049;DHT22;6591;51.446;5.404;2023-05-29T01:39:47;13.10;99.00
13049;DHT22;6591;51.446;5.404;2023-05-29T01:42:14;13.10;99.10
13049;DHT22;6591;51.446;5.404;2023-05-29T01:44:42;14.60;99.40
13049;DHT22;6591;51.446;5.404;2023-05-29T01:47:10;13.10;99.20
13049;DHT22;6591;51.446;5.404;2023-05-29T01:49:39;13.00;99.00
13049;DHT22;6591;51.446;5.404;2023-05-29T01:52:07;12.90;99.10
13049;DHT22;6591;51.446;5.404;2023-05-29T01:54:34;12.90;99.50
13049;DHT22;6591;51.446;5.404;2023-05-29T01:57:02;14.20;99.50
13049;DHT22;6591;51.446;5.404;2023-05-29T01:59:33;12.80;99.10
13049;DHT22;6591;51.446;5.404;2023-05-29T02:02:07;12.90;99.30
13049;DHT22;6591;51.446;5.404;2023-05-29T02:04:34;12.80;99.10
13049;DHT22;6591;51.446;5.404;2023-05-29T02:07:02;13.00;99.00
13049;DHT22;6591;51.446;5.404;2023-05-29T02:09:29;12.70;99.00
13049;DHT22;6591;51.446;5.404;2023-05-29T02:11:57;12.70;99.00
13049;DHT22;6591;51.446;5.404;2023-05-29T02:14:25;13.90;99.20
13049;DHT22;6591;51.446;5.404;2023-05-29T02:16:53;14.90;99.50
13049;DHT22;6591;51.446;5.404;2023-05-29T02:19:21;13.60;99.30
13049;DHT22;6591;51.446;5.404;2023-05-29T02:21:52;13.80;99.10
13049;DHT22;6591;51.446;5.404;2023-05-29T02:24:20;13.40;99.00
13049;DHT22;6591;51.446;5.404;2023-05-29T02:26:48;13.20;99.00
13049;DHT22;6591;51.446;5.404;2023-05-29T02:29:17;13.50;99.20
13049;DHT22;6591;51.446;5.404;2023-05-29T02:31:45;12.40;99.00
13049;DHT22;6591;51.446;5.404;2023-05-29T02:34:12;12.40;98.80
13049;DHT22;6591;51.446;5.404;2023-05-29T02:36:41;12.50;98.80
13049;DHT22;6591;51.446;5.404;2023-05-29T02:39:08;12.30;99.00
13049;DHT22;6591;51.446;5.404;2023-05-29T02:41:37;12.90;99.20
13049;DHT22;6591;51.446;5.404;2023-05-29T02:44:05;12.30;99.00
13049;DHT22;6591;51.446;5.404;2023-05-29T02:46:32;14.00;99.60
13049;DHT22;6591;51.446;5.404;2023-05-29T02:48:59;12.10;99.20
13049;DHT22;6591;51.446;5.404;2023-05-29T02:51:27;12.20;99.30
13049;DHT22;6591;51.446;5.404;2023-05-29T02:53:54;12.20;99.30
13049;DHT22;6591;51.446;5.404;2023-05-29T02:56:22;13.40;99.50
13049;DHT22;6591;51.446;5.404;2023-05-29T02:58:50;13.90;99.80
13049;DHT22;6591;51.446;5.404;2023-05-29T03:01:18;12.10;99.30
13049;DHT22;6591;51.446;5.404;2023-05-29T03:03:47;12.10;99.70
13049;DHT22;6591;51.446;5.404;2023-05-29T03:06:15;12.10;99.50
13049;DHT22;6591;51.446;5.404;2023-05-29T03:08:44;12.00;99.60
13049;DHT22;6591;51.446;5.404;2023-05-29T03:11:13;12.00;99.80
13049;DHT22;6591;51.446;5.404;2023-05-29T03:13:41;12.00;99.90
13049;DHT22;6591;51.446;5.404;2023-05-29T03:16:09;11.90;99.90
13049;DHT22;6591;51.446;5.404;2023-05-29T03:18:39;12.00;99.90
13049;DHT22;6591;51.446;5.404;2023-05-29T03:21:07;11.90;99.90
13049;DHT22;6591;51.446;5.404;2023-05-29T03:23:34;11.90;99.90
13049;DHT22;6591;51.446;5.404;2023-05-29T03:26:02;12.70;99.90
13049;DHT22;6591;51.446;5.404;2023-05-29T03:28:32;11.80;99.90
13049;DHT22;6591;51.446;5.404;2023-05-29T03:31:02;12.80;99.90
13049;DHT22;6591;51.446;5.404;2023-05-29T03:33:29;11.80;99.90
13049;DHT22;6591;51.446;5.404;2023-05-29T03:36:17;13.00;99.90
13049;DHT22;6591;51.446;5.404;2023-05-29T03:38:44;11.80;99.90
13049;DHT22;6591;51.446;5.404;2023-05-29T03:41:11;11.70;99.90
13049;DHT22;6591;51.446;5.404;2023-05-29T03:43:39;13.00;99.90
13049;DHT22;6591;51.446;5.404;2023-05-29T03:46:06;12.90;99.90
13049;DHT22;6591;51.446;5.404;2023-05-29T03:48:35;11.70;99.90
13049;DHT22;6591;51.446;5.404;2023-05-29T03:51:02;11.70;99.90
13049;DHT22;6591;51.446;5.404;2023-05-29T03:53:34;12.10;99.90
13049;DHT22;6591;51.446;5.404;2023-05-29T03:56:01;11.70;99.90
13049;DHT22;6591;51.446;5.404;2023-05-29T03:58:28;11.60;99.90
13049;DHT22;6591;51.446;5.404;2023-05-29T04:00:57;11.60;99.90
13049;DHT22;6591;51.446;5.404;2023-05-29T04:03:26;11.60;99.90
13049;DHT22;6591;51.446;5.404;2023-05-29T04:05:53;12.30;99.90
13049;DHT22;6591;51.446;5.404;2023-05-29T04:08:21;13.10;99.90
13049;DHT22;6591;51.446;5.404;2023-05-29T04:10:48;11.60;99.90
13049;DHT22;6591;51.446;5.404;2023-05-29T04:13:15;11.60;99.90
13049;DHT22;6591;51.446;5.404;2023-05-29T04:15:43;11.90;99.90
13049;DHT22;6591;51.446;5.404;2023-05-29T04:18:10;11.60;99.90
13049;DHT22;6591;51.446;5.404;2023-05-29T04:20:38;11.60;99.90
13049;DHT22;6591;51.446;5.404;2023-05-29T04:23:05;10.80;99.90
13049;DHT22;6591;51.446;5.404;2023-05-29T04:25:32;11.70;99.90
13049;DHT22;6591;51.446;5.404;2023-05-29T04:28:01;11.70;99.90
13049;DHT22;6591;51.446;5.404;2023-05-29T04:30:29;12.80;99.90
13049;DHT22;6591;51.446;5.404;2023-05-29T04:32:57;11.80;99.90
13049;DHT22;6591;51.446;5.404;2023-05-29T04:35:25;10.60;99.90
13049;DHT22;6591;51.446;5.404;2023-05-29T04:37:58;11.80;99.90
13049;DHT22;6591;51.446;5.404;2023-05-29T04:40:30;11.80;99.90
13049;DHT22;6591;51.446;5.404;2023-05-29T04:42:59;11.80;99.90
13049;DHT22;6591;51.446;5.404;2023-05-29T04:45:41;12.60;99.90
13049;DHT22;6591;51.446;5.404;2023-05-29T04:48:09;11.90;99.90
13049;DHT22;6591;51.446;5.404;2023-05-29T04:50:37;12.20;99.90
13049;DHT22;6591;51.446;5.404;2023-05-29T04:53:05;12.00;99.90
13049;DHT22;6591;51.446;5.404;2023-05-29T04:55:33;12.00;99.90
13049;DHT22;6591;51.446;5.404;2023-05-29T04:58:01;12.10;99.90
13049;DHT22;6591;51.446;5.404;2023-05-29T05:00:29;12.20;99.90
13049;DHT22;6591;51.446;5.404;2023-05-29T05:02:56;12.10;99.90
13049;DHT22;6591;51.446;5.404;2023-05-29T05:05:23;12.20;99.90
13049;DHT22;6591;51.446;5.404;2023-05-29T05:07:56;13.10;99.90
13049;DHT22;6591;51.446;5.404;2023-05-29T05:10:23;12.30;99.90
13049;DHT22;6591;51.446;5.404;2023-05-29T05:12:50;12.40;99.90
13049;DHT22;6591;51.446;5.404;2023-05-29T05:15:20;13.80;99.90
13049;DHT22;6591;51.446;5.404;2023-05-29T05:17:47;13.40;99.90
13049;DHT22;6591;51.446;5.404;2023-05-29T05:20:14;13.60;99.90
13049;DHT22;6591;51.446;5.404;2023-05-29T05:22:45;12.60;99.90
13049;DHT22;6591;51.446;5.404;2023-05-29T05:25:12;12.60;99.90
13049;DHT22;6591;51.446;5.404;2023-05-29T05:27:39;12.90;99.90
13049;DHT22;6591;51.446;5.404;2023-05-29T05:30:07;12.90;99.90
13049;DHT22;6591;51.446;5.404;2023-05-29T05:32:35;12.80;99.90
13049;DHT22;6591;51.446;5.404;2023-05-29T05:35:05;14.00;99.90
13049;DHT22;6591;51.446;5.404;2023-05-29T05:37:34;13.00;99.90
13049;DHT22;6591;51.446;5.404;2023-05-29T05:40:03;13.10;99.90
13049;DHT22;6591;51.446;5.404;2023-05-29T05:42:35;13.10;99.70
13049;DHT22;6591;51.446;5.404;2023-05-29T05:45:07;14.40;99.90
13049;DHT22;6591;51.446;5.404;2023-05-29T05:47:35;13.20;99.60
13049;DHT22;6591;51.446;5.404;2023-05-29T05:50:03;12.90;99.30
13049;DHT22;6591;51.446;5.404;2023-05-29T05:52:32;13.40;99.40
13049;DHT22;6591;51.446;5.404;2023-05-29T05:55:00;15.10;99.60
13049;DHT22;6591;51.446;5.404;2023-05-29T05:57:28;13.50;99.00
13049;DHT22;6591;51.446;5.404;2023-05-29T05:59:56;13.60;99.30
13049;DHT22;6591;51.446;5.404;2023-05-29T06:02:24;13.80;98.90
13049;DHT22;6591;51.446;5.404;2023-05-29T06:04:52;13.70;98.50
13049;DHT22;6591;51.446;5.404;2023-05-29T06:07:19;14.30;98.60
13049;DHT22;6591;51.446;5.404;2023-05-29T06:09:48;13.80;98.30
13049;DHT22;6591;51.446;5.404;2023-05-29T06:12:15;14.10;98.40
13049;DHT22;6591;51.446;5.404;2023-05-29T06:14:53;15.00;98.50
13049;DHT22;6591;51.446;5.404;2023-05-29T06:17:21;14.00;98.00
13049;DHT22;6591;51.446;5.404;2023-05-29T06:19:49;14.00;97.90
13049;DHT22;6591;51.446;5.404;2023-05-29T06:22:18;14.10;97.90
13049;DHT22;6591;51.446;5.404;2023-05-29T06:24:45;14.30;98.00
13049;DHT22;6591;51.446;5.404;2023-05-29T06:27:13;14.20;97.70
13049;DHT22;6591;51.446;5.404;2023-05-29T06:29:40;15.30;97.80
13049;DHT22;6591;51.446;5.404;2023-05-29T06:32:07;15.60;97.70
13049;DHT22;6591;51.446;5.404;2023-05-29T06:34:34;14.50;97.00
13049;DHT22;6591;51.446;5.404;2023-05-29T06:37:02;15.40;96.90
13049;DHT22;6591;51.446;5.404;2023-05-29T06:39:29;14.60;96.40
13049;DHT22;6591;51.446;5.404;2023-05-29T06:41:57;15.20;96.70
13049;DHT22;6591;51.446;5.404;2023-05-29T06:44:24;14.70;96.60
13049;DHT22;6591;51.446;5.404;2023-05-29T06:46:53;14.80;96.60
13049;DHT22;6591;51.446;5.404;2023-05-29T06:49:21;14.90;96.40
13049;DHT22;6591;51.446;5.404;2023-05-29T06:51:48;15.00;96.20
13049;DHT22;6591;51.446;5.404;2023-05-29T06:54:22;15.70;95.80
13049;DHT22;6591;51.446;5.404;2023-05-29T06:56:49;16.20;95.70
13049;DHT22;6591;51.446;5.404;2023-05-29T06:59:37;15.20;95.30
13049;DHT22;6591;51.446;5.404;2023-05-29T07:02:07;15.30;95.20
13049;DHT22;6591;51.446;5.404;2023-05-29T07:04:35;15.40;94.90
13049;DHT22;6591;51.446;5.404;2023-05-29T07:07:03;15.50;94.70
13049;DHT22;6591;51.446;5.404;2023-05-29T07:09:30;15.50;94.70
13049;DHT22;6591;51.446;5.404;2023-05-29T07:11:57;15.10;94.30
13049;DHT22;6591;51.446;5.404;2023-05-29T07:14:25;15.70;94.50
13049;DHT22;6591;51.446;5.404;2023-05-29T07:16:52;15.80;94.30
13049;DHT22;6591;51.446;5.404;2023-05-29T07:19:19;16.00;93.70
13049;DHT22;6591;51.446;5.404;2023-05-29T07:21:49;16.10;93.60
13049;DHT22;6591;51.446;5.404;2023-05-29T07:24:19;17.40;93.60
13049;DHT22;6591;51.446;5.404;2023-05-29T07:26:46;17.60;92.90
13049;DHT22;6591;51.446;5.404;2023-05-29T07:29:13;18.10;93.10
13049;DHT22;6591;51.446;5.404;2023-05-29T07:31:41;17.10;92.40
13049;DHT22;6591;51.446;5.404;2023-05-29T07:34:09;16.50;91.70
13049;DHT22;6591;51.446;5.404;2023-05-29T07:37:02;16.40;91.70
13049;DHT22;6591;51.446;5.404;2023-05-29T07:39:34;16.50;91.80
13049;DHT22;6591;51.446;5.404;2023-05-29T07:42:12;16.60;91.90
13049;DHT22;6591;51.446;5.404;2023-05-29T07:44:42;16.70;91.70
13049;DHT22;6591;51.446;5.404;2023-05-29T07:47:10;16.80;91.50
13049;DHT22;6591;51.446;5.404;2023-05-29T07:49:44;17.80;91.70
13049;DHT22;6591;51.446;5.404;2023-05-29T07:52:12;17.10;91.10
13049;DHT22;6591;51.446;5.404;2023-05-29T07:54:40;17.20;90.10
13049;DHT22;6591;51.446;5.404;2023-05-29T07:57:13;17.40;90.10
13049;DHT22;6591;51.446;5.404;2023-05-29T07:59:43;18.40;90.00
13049;DHT22;6591;51.446;5.404;2023-05-29T08:02:11;18.70;90.00
13049;DHT22;6591;51.446;5.404;2023-05-29T08:05:06;17.40;88.70
13049;DHT22;6591;51.446;5.404;2023-05-29T08:07:36;17.60;87.70
13049;DHT22;6591;51.446;5.404;2023-05-29T08:10:04;17.60;86.60
13049;DHT22;6591;51.446;5.404;2023-05-29T08:12:33;17.70;87.30
13049;DHT22;6591;51.446;5.404;2023-05-29T08:15:08;17.70;87.00
13049;DHT22;6591;51.446;5.404;2023-05-29T08:17:37;17.80;86.70
13049;DHT22;6591;51.446;5.404;2023-05-29T08:20:04;17.90;86.70
13049;DHT22;6591;51.446;5.404;2023-05-29T08:22:37;18.10;83.90
13049;DHT22;6591;51.446;5.404;2023-05-29T08:25:04;18.10;86.30
13049;DHT22;6591;51.446;5.404;2023-05-29T08:27:32;18.20;86.30
13049;DHT22;6591;51.446;5.404;2023-05-29T08:29:59;18.50;85.70
13049;DHT22;6591;51.446;5.404;2023-05-29T08:32:26;18.60;84.90
13049;DHT22;6591;51.446;5.404;2023-05-29T08:34:54;18.70;85.40
13049;DHT22;6591;51.446;5.404;2023-05-29T08:37:21;18.90;84.30
13049;DHT22;6591;51.446;5.404;2023-05-29T08:39:48;19.00;83.70
13049;DHT22;6591;51.446;5.404;2023-05-29T08:42:23;19.10;83.00
13049;DHT22;6591;51.446;5.404;2023-05-29T08:44:56;19.30;83.60
13049;DHT22;6591;51.446;5.404;2023-05-29T08:47:27;19.40;82.60
13049;DHT22;6591;51.446;5.404;2023-05-29T08:50:00;19.60;81.30
13049;DHT22;6591;51.446;5.404;2023-05-29T08:52:33;19.60;80.90
13049;DHT22;6591;51.446;5.404;2023-05-29T08:55:05;19.80;79.40
13049;DHT22;6591;51.446;5.404;2023-05-29T08:57:34;19.80;79.60
13049;DHT22;6591;51.446;5.404;2023-05-29T09:00:03;21.00;79.60
13049;DHT22;6591;51.446;5.404;2023-05-29T09:02:36;19.90;78.20
13049;DHT22;6591;51.446;5.404;2023-05-29T09:05:04;20.00;77.60
13049;DHT22;6591;51.446;5.404;2023-05-29T09:07:33;20.00;77.80
13049;DHT22;6591;51.446;5.404;2023-05-29T09:10:01;20.10;77.50
13049;DHT22;6591;51.446;5.404;2023-05-29T09:12:30;20.10;77.50
13049;DHT22;6591;51.446;5.404;2023-05-29T09:14:58;20.20;77.40
13049;DHT22;6591;51.446;5.404;2023-05-29T09:17:33;20.20;76.20
13049;DHT22;6591;51.446;5.404;2023-05-29T09:20:00;20.30;76.90
13049;DHT22;6591;51.446;5.404;2023-05-29T09:22:28;20.40;76.70
13049;DHT22;6591;51.446;5.404;2023-05-29T09:24:55;20.50;76.50
13049;DHT22;6591;51.446;5.404;2023-05-29T09:27:40;20.60;75.00
13049;DHT22;6591;51.446;5.404;2023-05-29T09:30:09;20.70;73.80
13049;DHT22;6591;51.446;5.404;2023-05-29T09:32:37;20.70;74.00
13049;DHT22;6591;51.446;5.404;2023-05-29T09:35:04;20.80;74.10
13049;DHT22;6591;51.446;5.404;2023-05-29T09:37:41;20.80;73.90
13049;DHT22;6591;51.446;5.404;2023-05-29T09:40:11;20.90;75.20
13049;DHT22;6591;51.446;5.404;2023-05-29T09:42:40;20.90;74.10
13049;DHT22;6591;51.446;5.404;2023-05-29T09:45:07;21.10;73.90
13049;DHT22;6591;51.446;5.404;2023-05-29T09:47:35;21.20;73.90
13049;DHT22;6591;51.446;5.404;2023-05-29T09:50:02;21.30;72.30
13049;DHT22;6591;51.446;5.404;2023-05-29T09:52:30;21.40;72.10
13049;DHT22;6591;51.446;5.404;2023-05-29T09:54:57;21.40;72.50
13049;DHT22;6591;51.446;5.404;2023-05-29T09:57:24;21.50;72.20
13049;DHT22;6591;51.446;5.404;2023-05-29T09:59:53;21.60;71.20
13049;DHT22;6591;51.446;5.404;2023-05-29T10:02:21;21.80;70.60
13049;DHT22;6591;51.446;5.404;2023-05-29T10:04:49;21.90;69.50
13049;DHT22;6591;51.446;5.404;2023-05-29T10:07:27;22.00;68.50
13049;DHT22;6591;51.446;5.404;2023-05-29T10:10:04;21.90;67.60
13049;DHT22;6591;51.446;5.404;2023-05-29T10:12:37;22.10;67.10
13049;DHT22;6591;51.446;5.404;2023-05-29T10:15:17;22.20;69.10
13049;DHT22;6591;51.446;5.404;2023-05-29T10:20:26;22.30;67.50
13049;DHT22;6591;51.446;5.404;2023-05-29T10:22:56;22.30;67.00
13049;DHT22;6591;51.446;5.404;2023-05-29T10:25:29;22.40;66.20
13049;DHT22;6591;51.446;5.404;2023-05-29T10:28:00;22.30;66.10
13049;DHT22;6591;51.446;5.404;2023-05-29T10:30:51;22.30;67.70
13049;DHT22;6591;51.446;5.404;2023-05-29T10:36:35;22.30;66.10
13049;DHT22;6591;51.446;5.404;2023-05-29T10:39:10;22.40;66.70
13049;DHT22;6591;51.446;5.404;2023-05-29T10:41:37;22.50;67.20
13049;DHT22;6591;51.446;5.404;2023-05-29T10:47:03;22.80;65.30
13049;DHT22;6591;51.446;5.404;2023-05-29T10:49:32;22.90;66.40
13049;DHT22;6591;51.446;5.404;2023-05-29T10:51:59;23.00;65.40
13049;DHT22;6591;51.446;5.404;2023-05-29T10:54:26;23.20;65.30
13049;DHT22;6591;51.446;5.404;2023-05-29T10:56:58;23.20;64.70
13049;DHT22;6591;51.446;5.404;2023-05-29T10:59:28;23.30;63.80
13049;DHT22;6591;51.446;5.404;2023-05-29T11:01:56;23.30;64.30
13049;DHT22;6591;51.446;5.404;2023-05-29T11:06:53;23.50;64.60
13049;DHT22;6591;51.446;5.404;2023-05-29T11:09:30;23.50;63.70
13049;DHT22;6591;51.446;5.404;2023-05-29T11:12:21;23.60;63.30
13049;DHT22;6591;51.446;5.404;2023-05-29T11:15:11;23.60;62.30
13049;DHT22;6591;51.446;5.404;2023-05-29T11:17:45;23.60;62.70
13049;DHT22;6591;51.446;5.404;2023-05-29T11:20:37;23.60;61.60
13049;DHT22;6591;51.446;5.404;2023-05-29T11:23:15;23.60;62.20
13049;DHT22;6591;51.446;5.404;2023-05-29T11:25:46;23.60;62.20
13049;DHT22;6591;51.446;5.404;2023-05-29T11:28:14;23.50;62.40
13049;DHT22;6591;51.446;5.404;2023-05-29T11:30:48;23.60;61.20
13049;DHT22;6591;51.446;5.404;2023-05-29T11:33:22;23.60;61.20
13049;DHT22;6591;51.446;5.404;2023-05-29T11:35:57;23.50;61.00
13049;DHT22;6591;51.446;5.404;2023-05-29T11:38:26;23.50;61.60
13049;DHT22;6591;51.446;5.404;2023-05-29T11:40:54;23.60;62.10
13049;DHT22;6591;51.446;5.404;2023-05-29T11:43:22;23.60;61.20
13049;DHT22;6591;51.446;5.404;2023-05-29T11:45:49;23.70;61.40
13049;DHT22;6591;51.446;5.404;2023-05-29T11:48:17;23.80;61.50
13049;DHT22;6591;51.446;5.404;2023-05-29T11:50:45;24.00;60.60
13049;DHT22;6591;51.446;5.404;2023-05-29T11:53:12;24.10;60.40
13049;DHT22;6591;51.446;5.404;2023-05-29T11:55:40;24.10;59.90
13049;DHT22;6591;51.446;5.404;2023-05-29T11:58:07;24.20;61.20
13049;DHT22;6591;51.446;5.404;2023-05-29T12:00:37;24.30;60.70
13049;DHT22;6591;51.446;5.404;2023-05-29T12:03:06;24.40;60.40
13049;DHT22;6591;51.446;5.404;2023-05-29T12:05:49;24.50;59.20
13049;DHT22;6591;51.446;5.404;2023-05-29T12:08:24;24.50;58.20
13049;DHT22;6591;51.446;5.404;2023-05-29T12:10:52;24.60;58.80
13049;DHT22;6591;51.446;5.404;2023-05-29T12:13:20;24.60;58.70
13049;DHT22;6591;51.446;5.404;2023-05-29T12:16:00;24.60;58.70
13049;DHT22;6591;51.446;5.404;2023-05-29T12:18:29;24.60;57.70
13049;DHT22;6591;51.446;5.404;2023-05-29T12:21:01;24.60;58.70
13049;DHT22;6591;51.446;5.404;2023-05-29T12:23:29;24.70;58.50
13049;DHT22;6591;51.446;5.404;2023-05-29T12:25:58;24.70;58.40
13049;DHT22;6591;51.446;5.404;2023-05-29T12:28:26;24.80;59.10
13049;DHT22;6591;51.446;5.404;2023-05-29T12:30:58;25.00;58.70
13049;DHT22;6591;51.446;5.404;2023-05-29T12:33:31;24.90;56.80
13049;DHT22;6591;51.446;5.404;2023-05-29T12:36:07;25.20;56.80
13049;DHT22;6591;51.446;5.404;2023-05-29T12:38:50;25.30;56.00
13049;DHT22;6591;51.446;5.404;2023-05-29T12:41:28;25.30;55.90
13049;DHT22;6591;51.446;5.404;2023-05-29T12:44:02;25.30;56.10
13049;DHT22;6591;51.446;5.404;2023-05-29T12:46:39;25.40;55.70
13049;DHT22;6591;51.446;5.404;2023-05-29T12:49:16;25.30;54.90
13049;DHT22;6591;51.446;5.404;2023-05-29T12:51:48;25.30;55.10
13049;DHT22;6591;51.446;5.404;2023-05-29T12:54:16;25.40;55.60
13049;DHT22;6591;51.446;5.404;2023-05-29T12:56:45;25.30;54.80
13049;DHT22;6591;51.446;5.404;2023-05-29T12:59:13;25.30;55.10
13049;DHT22;6591;51.446;5.404;2023-05-29T13:01:41;25.20;54.70
13049;DHT22;6591;51.446;5.404;2023-05-29T13:04:08;25.20;54.30
13049;DHT22;6591;51.446;5.404;2023-05-29T13:06:37;26.10;55.70
13049;DHT22;6591;51.446;5.404;2023-05-29T13:09:05;25.20;54.50
13049;DHT22;6591;51.446;5.404;2023-05-29T13:11:34;25.20;55.10
13049;DHT22;6591;51.446;5.404;2023-05-29T13:14:04;25.20;54.60
13049;DHT22;6591;51.446;5.404;2023-05-29T13:16:31;25.20;55.60
13049;DHT22;6591;51.446;5.404;2023-05-29T13:18:58;25.30;55.10
13049;DHT22;6591;51.446;5.404;2023-05-29T13:21:25;25.30;55.30
13049;DHT22;6591;51.446;5.404;2023-05-29T13:23:52;25.40;54.50
13049;DHT22;6591;51.446;5.404;2023-05-29T13:26:20;25.40;54.50
13049;DHT22;6591;51.446;5.404;2023-05-29T13:28:48;25.40;55.40
13049;DHT22;6591;51.446;5.404;2023-05-29T13:31:17;25.60;55.40
13049;DHT22;6591;51.446;5.404;2023-05-29T13:33:47;25.70;54.00
13049;DHT22;6591;51.446;5.404;2023-05-29T13:36:14;25.70;53.10
13049;DHT22;6591;51.446;5.404;2023-05-29T13:38:42;25.70;52.80
13049;DHT22;6591;51.446;5.404;2023-05-29T13:41:11;25.60;53.10
13049;DHT22;6591;51.446;5.404;2023-05-29T13:43:38;25.50;53.50
13049;DHT22;6591;51.446;5.404;2023-05-29T13:46:12;25.40;53.10
13049;DHT22;6591;51.446;5.404;2023-05-29T13:48:39;25.40;53.70
13049;DHT22;6591;51.446;5.404;2023-05-29T13:51:07;25.40;53.30
13049;DHT22;6591;51.446;5.404;2023-05-29T13:53:34;25.30;52.50
13049;DHT22;6591;51.446;5.404;2023-05-29T13:56:01;25.30;53.00
13049;DHT22;6591;51.446;5.404;2023-05-29T13:58:28;25.30;53.40
13049;DHT22;6591;51.446;5.404;2023-05-29T14:00:56;25.30;53.60
13049;DHT22;6591;51.446;5.404;2023-05-29T14:03:23;25.40;54.00
13049;DHT22;6591;51.446;5.404;2023-05-29T14:05:55;25.50;53.90
13049;DHT22;6591;51.446;5.404;2023-05-29T14:08:23;25.60;52.30
13049;DHT22;6591;51.446;5.404;2023-05-29T14:10:50;25.70;51.40
13049;DHT22;6591;51.446;5.404;2023-05-29T14:13:18;25.80;50.80
13049;DHT22;6591;51.446;5.404;2023-05-29T14:15:46;25.80;50.60
13049;DHT22;6591;51.446;5.404;2023-05-29T14:18:16;25.90;50.10
13049;DHT22;6591;51.446;5.404;2023-05-29T14:20:43;26.00;50.80
13049;DHT22;6591;51.446;5.404;2023-05-29T14:23:17;26.10;50.30
13049;DHT22;6591;51.446;5.404;2023-05-29T14:25:45;27.30;51.00
13049;DHT22;6591;51.446;5.404;2023-05-29T14:28:12;26.30;50.10
13049;DHT22;6591;51.446;5.404;2023-05-29T14:30:39;26.40;49.30
13049;DHT22;6591;51.446;5.404;2023-05-29T14:33:06;26.40;49.30
13049;DHT22;6591;51.446;5.404;2023-05-29T14:35:34;26.40;50.00
13049;DHT22;6591;51.446;5.404;2023-05-29T14:38:01;26.50;49.50
13049;DHT22;6591;51.446;5.404;2023-05-29T14:40:28;26.50;49.30
13049;DHT22;6591;51.446;5.404;2023-05-29T14:42:58;26.50;49.30
13049;DHT22;6591;51.446;5.404;2023-05-29T14:45:25;26.50;49.50
13049;DHT22;6591;51.446;5.404;2023-05-29T14:47:52;26.50;49.80
13049;DHT22;6591;51.446;5.404;2023-05-29T14:50:19;26.60;49.40
13049;DHT22;6591;51.446;5.404;2023-05-29T14:52:47;26.60;49.80
13049;DHT22;6591;51.446;5.404;2023-05-29T14:55:17;26.60;50.40
13049;DHT22;6591;51.446;5.404;2023-05-29T14:57:44;26.70;49.80
13049;DHT22;6591;51.446;5.404;2023-05-29T15:00:11;26.80;50.00
13049;DHT22;6591;51.446;5.404;2023-05-29T15:02:39;26.90;48.80
13049;DHT22;6591;51.446;5.404;2023-05-29T15:05:07;27.10;49.10
13049;DHT22;6591;51.446;5.404;2023-05-29T15:07:34;27.20;48.50
13049;DHT22;6591;51.446;5.404;2023-05-29T15:10:03;27.40;48.70
13049;DHT22;6591;51.446;5.404;2023-05-29T15:12:31;27.40;48.00
13049;DHT22;6591;51.446;5.404;2023-05-29T15:14:59;27.50;47.70
13049;DHT22;6591;51.446;5.404;2023-05-29T15:17:26;27.50;48.00
13049;DHT22;6591;51.446;5.404;2023-05-29T15:19:53;27.50;47.40
13049;DHT22;6591;51.446;5.404;2023-05-29T15:22:20;27.50;47.50
13049;DHT22;6591;51.446;5.404;2023-05-29T15:24:48;27.50;47.40
13049;DHT22;6591;51.446;5.404;2023-05-29T15:27:15;27.60;47.00
13049;DHT22;6591;51.446;5.404;2023-05-29T15:29:42;27.60;46.50
13049;DHT22;6591;51.446;5.404;2023-05-29T15:32:09;27.60;47.00
13049;DHT22;6591;51.446;5.404;2023-05-29T15:34:36;27.60;47.40
13049;DHT22;6591;51.446;5.404;2023-05-29T15:37:04;27.70;47.30
13049;DHT22;6591;51.446;5.404;2023-05-29T15:39:32;27.80;46.40
13049;DHT22;6591;51.446;5.404;2023-05-29T15:41:59;27.90;46.30
13049;DHT22;6591;51.446;5.404;2023-05-29T15:44:26;27.90;45.70
13049;DHT22;6591;51.446;5.404;2023-05-29T15:46:56;28.10;45.30
13049;DHT22;6591;51.446;5.404;2023-05-29T15:49:24;27.90;44.80
13049;DHT22;6591;51.446;5.404;2023-05-29T15:51:52;27.80;45.30
13049;DHT22;6591;51.446;5.404;2023-05-29T15:54:22;27.70;44.80
13049;DHT22;6591;51.446;5.404;2023-05-29T15:56:51;27.70;44.60
13049;DHT22;6591;51.446;5.404;2023-05-29T15:59:21;27.70;43.60
13049;DHT22;6591;51.446;5.404;2023-05-29T16:01:51;27.60;43.30
13049;DHT22;6591;51.446;5.404;2023-05-29T16:04:19;27.60;43.10
13049;DHT22;6591;51.446;5.404;2023-05-29T16:06:46;27.60;43.40
13049;DHT22;6591;51.446;5.404;2023-05-29T16:09:14;27.60;43.70
13049;DHT22;6591;51.446;5.404;2023-05-29T16:11:41;27.60;44.20
13049;DHT22;6591;51.446;5.404;2023-05-29T16:14:09;27.70;44.50
13049;DHT22;6591;51.446;5.404;2023-05-29T16:16:39;27.80;44.50
13049;DHT22;6591;51.446;5.404;2023-05-29T16:19:09;27.90;43.70